createdAt,value
2023-04-10T00:01:08.178Z,31.27
2023-04-10T00:03:35.353Z,28.17
2023-04-10T00:06:02.320Z,26.30
2023-04-10T00:08:29.236Z,31.03
2023-04-10T00:10:56.989Z,26.43
2023-04-10T00:13:25.228Z,30.93
2023-04-10T00:15:52.135Z,31.53
2023-04-10T00:18:19.069Z,30.40
2023-04-10T00:20:46.000Z,32.80
2023-04-10T00:23:12.913Z,33.90
2023-04-10T00:25:39.840Z,34.50
2023-04-10T00:28:06.899Z,32.10
2023-04-10T00:30:35.235Z,27.63
2023-04-10T00:33:02.202Z,30.80
2023-04-10T00:35:29.108Z,30.40
2023-04-10T00:37:56.831Z,33.03
2023-04-10T00:40:23.942Z,31.93
2023-04-10T00:42:52.273Z,34.27
2023-04-10T00:45:19.523Z,30.33
2023-04-10T00:47:47.989Z,33.13
2023-04-10T00:50:15.286Z,33.00
2023-04-10T00:52:42.467Z,37.17
2023-04-10T00:55:11.011Z,33.57
2023-04-10T00:57:38.364Z,33.47
2023-04-10T01:00:06.747Z,32.90
2023-04-10T01:02:33.730Z,33.77
2023-04-10T01:05:02.442Z,36.30
2023-04-10T01:07:48.840Z,37.27
2023-04-10T01:10:26.208Z,37.90
2023-04-10T01:13:05.793Z,35.93
2023-04-10T01:15:43.931Z,34.97
2023-04-10T01:18:22.885Z,36.07
2023-04-10T01:20:51.191Z,32.57
2023-04-10T01:24:07.166Z,36.07
2023-04-10T01:27:01.431Z,35.10
2023-04-10T01:29:34.038Z,37.80
2023-04-10T01:32:04.909Z,37.73
2023-04-10T01:34:39.406Z,35.13
2023-04-10T01:37:16.595Z,36.47
2023-04-10T01:39:49.955Z,36.73
2023-04-10T01:42:20.745Z,37.47
2023-04-10T01:44:51.847Z,38.07
2023-04-10T01:47:19.770Z,39.77
2023-04-10T01:49:50.422Z,38.10
2023-04-10T01:52:20.217Z,34.40
2023-04-10T01:54:48.950Z,40.97
2023-04-10T01:57:17.289Z,36.60
2023-04-10T01:59:44.432Z,38.90
2023-04-10T02:02:12.878Z,39.93
2023-04-10T02:04:40.047Z,38.00
2023-04-10T02:07:13.733Z,36.73
2023-04-10T02:09:49.903Z,36.17
2023-04-10T02:12:22.570Z,38.37
2023-04-10T02:14:53.043Z,36.03
2023-04-10T02:17:28.743Z,37.87
2023-04-10T02:19:57.266Z,39.00
2023-04-10T02:22:26.440Z,39.33
2023-04-10T02:24:54.480Z,35.87
2023-04-10T02:27:29.289Z,39.33
2023-04-10T02:29:56.738Z,39.90
2023-04-10T02:32:25.685Z,39.27
2023-04-10T02:34:52.647Z,40.63
2023-04-10T02:37:19.546Z,34.77
2023-04-10T02:39:46.501Z,39.93
2023-04-10T02:42:13.436Z,35.57
2023-04-10T02:44:40.577Z,39.00
2023-04-10T02:47:08.009Z,38.80
2023-04-10T02:49:36.801Z,33.33
2023-04-10T02:52:03.845Z,41.37
2023-04-10T02:54:30.796Z,37.37
2023-04-10T02:56:58.774Z,37.27
2023-04-10T02:59:25.720Z,37.77
2023-04-10T03:01:52.622Z,35.73
2023-04-10T03:04:19.944Z,38.33
2023-04-10T03:06:48.370Z,38.63
2023-04-10T03:09:15.330Z,43.20
2023-04-10T03:11:42.222Z,39.53
2023-04-10T03:14:12.018Z,38.60
2023-04-10T03:16:39.153Z,37.03
2023-04-10T03:19:06.284Z,39.00
2023-04-10T03:21:33.679Z,44.90
2023-04-10T03:24:02.611Z,40.10
2023-04-10T03:26:29.561Z,37.30
2023-04-10T03:28:56.431Z,37.63
2023-04-10T03:31:23.725Z,35.50
2023-04-10T03:33:50.925Z,36.10
2023-04-10T03:36:17.964Z,42.17
2023-04-10T03:38:44.979Z,37.47
2023-04-10T03:41:13.206Z,39.43
2023-04-10T03:43:40.147Z,34.67
2023-04-10T03:46:07.243Z,36.70
2023-04-10T03:48:34.223Z,35.73
2023-04-10T03:51:02.159Z,40.60
2023-04-10T03:53:29.324Z,41.47
2023-04-10T03:55:56.303Z,35.70
2023-04-10T03:58:24.641Z,37.07
2023-04-10T04:00:51.537Z,41.93
2023-04-10T04:03:18.700Z,37.77
2023-04-10T04:05:45.916Z,39.73
2023-04-10T04:08:13.879Z,40.17
2023-04-10T04:10:40.812Z,38.30
2023-04-10T04:13:07.693Z,36.63
2023-04-10T04:15:36.016Z,41.10
2023-04-10T04:18:02.922Z,36.50
2023-04-10T04:20:30.042Z,34.03
2023-04-10T04:22:56.935Z,37.53
2023-04-10T04:25:23.994Z,39.10
2023-04-10T04:27:51.181Z,38.17
2023-04-10T04:30:18.224Z,37.87
2023-04-10T04:32:46.428Z,35.87
2023-04-10T04:35:13.333Z,36.47
2023-04-10T04:37:40.717Z,40.50
2023-04-10T04:40:08.909Z,35.33
2023-04-10T04:42:35.802Z,36.37
2023-04-10T04:45:02.872Z,40.70
2023-04-10T04:47:30.194Z,39.20
2023-04-10T04:49:58.417Z,37.07
2023-04-10T04:52:25.548Z,37.13
2023-04-10T04:54:52.576Z,38.77
2023-04-10T04:57:19.463Z,35.23
2023-04-10T04:59:46.355Z,37.27
2023-04-10T05:02:13.340Z,38.23
2023-04-10T05:04:42.091Z,39.87
2023-04-10T05:07:10.482Z,35.80
2023-04-10T05:09:37.369Z,38.67
2023-04-10T05:12:04.828Z,38.40
2023-04-10T05:14:31.725Z,36.23
2023-04-10T05:16:58.568Z,36.40
2023-04-10T05:19:25.528Z,34.67
2023-04-10T05:21:52.418Z,35.60
2023-04-10T05:24:21.481Z,37.83
2023-04-10T05:26:48.358Z,35.47
2023-04-10T05:29:15.319Z,35.57
2023-04-10T05:31:42.296Z,38.50
2023-04-10T05:34:09.275Z,36.60
2023-04-10T05:36:36.731Z,35.83
2023-04-10T05:39:03.868Z,35.60
2023-04-10T05:41:32.125Z,37.73
2023-04-10T05:43:59.107Z,37.07
2023-04-10T05:46:26.042Z,34.07
2023-04-10T05:48:53.516Z,33.93
2023-04-10T05:51:20.572Z,34.50
2023-04-10T05:53:48.730Z,31.27
2023-04-10T05:56:15.661Z,35.17
2023-04-10T05:58:44.004Z,37.03
2023-04-10T06:01:11.318Z,32.50
2023-04-10T06:03:38.326Z,32.43
2023-04-10T06:06:07.803Z,32.53
2023-04-10T06:08:34.731Z,33.90
2023-04-10T06:11:01.634Z,35.30
2023-04-10T06:13:28.573Z,34.47
2023-04-10T06:15:56.860Z,33.60
2023-04-10T06:18:23.736Z,31.80
2023-04-10T06:20:50.636Z,32.47
2023-04-10T06:23:17.551Z,28.93
2023-04-10T06:25:44.507Z,31.10
2023-04-10T06:28:11.553Z,34.90
2023-04-10T06:30:38.448Z,32.10
2023-04-10T06:33:06.703Z,33.47
2023-04-10T06:35:34.338Z,29.67
2023-04-10T06:38:01.299Z,30.07
2023-04-10T06:40:29.447Z,31.73
2023-04-10T06:42:56.445Z,31.27
2023-04-10T06:45:23.363Z,28.10
2023-04-10T06:47:51.252Z,31.57
2023-04-10T06:50:19.507Z,28.50
2023-04-10T06:52:46.581Z,30.77
2023-04-10T06:55:13.488Z,28.70
2023-04-10T06:57:40.665Z,29.73
2023-04-10T07:00:09.417Z,29.77
2023-04-10T07:02:36.380Z,26.27
2023-04-10T07:05:03.579Z,28.97
2023-04-10T07:07:32.864Z,25.57
2023-04-10T07:09:59.827Z,27.90
2023-04-10T07:12:26.848Z,26.83
2023-04-10T07:14:53.747Z,26.70
2023-04-10T07:17:21.149Z,26.50
2023-04-10T07:19:48.100Z,26.07
2023-04-10T07:22:15.681Z,23.23
2023-04-10T07:24:44.255Z,25.57
2023-04-10T07:27:12.760Z,24.97
2023-04-10T07:29:39.664Z,22.20
2023-04-10T07:32:06.879Z,24.33
2023-04-10T07:34:33.965Z,21.20
2023-04-10T07:37:00.866Z,21.93
2023-04-10T07:39:27.741Z,20.57
2023-04-10T07:41:56.324Z,22.00
2023-04-10T07:44:23.272Z,20.87
2023-04-10T07:46:52.145Z,21.53
2023-04-10T07:49:19.050Z,23.30
2023-04-10T07:51:46.024Z,21.10
2023-04-10T07:54:12.944Z,19.67
2023-04-10T07:56:40.161Z,22.73
2023-04-10T07:59:08.659Z,20.40
2023-04-10T08:01:35.688Z,20.70
2023-04-10T08:04:05.668Z,19.43
2023-04-10T08:06:33.215Z,19.83
2023-04-10T08:09:01.540Z,20.63
2023-04-10T08:11:31.255Z,20.73
2023-04-10T08:14:03.754Z,17.40
2023-04-10T08:16:33.972Z,18.23
2023-04-10T08:19:02.433Z,17.53
2023-04-10T08:21:31.749Z,17.00
2023-04-10T08:24:01.185Z,16.20
2023-04-10T08:26:29.172Z,15.57
2023-04-10T08:28:59.724Z,14.63
2023-04-10T08:31:29.293Z,15.40
2023-04-10T08:33:58.566Z,15.63
2023-04-10T08:36:27.097Z,15.90
2023-04-10T08:38:54.218Z,14.90
2023-04-10T08:41:21.244Z,14.90
2023-04-10T08:43:50.061Z,13.93
2023-04-10T08:46:17.253Z,15.67
2023-04-10T08:48:52.454Z,15.43
2023-04-10T08:51:28.812Z,15.77
2023-04-10T08:54:06.286Z,14.73
2023-04-10T08:56:35.637Z,15.93
2023-04-10T08:59:04.390Z,14.37
2023-04-10T09:01:31.575Z,13.60
2023-04-10T09:03:59.772Z,13.43
2023-04-10T09:06:28.448Z,13.40
2023-04-10T09:08:55.505Z,12.03
2023-04-10T09:11:22.473Z,13.43
2023-04-10T09:13:49.444Z,12.03
2023-04-10T09:16:16.457Z,12.73
2023-04-10T09:18:46.573Z,11.60
2023-04-10T09:21:17.158Z,11.73
2023-04-10T09:23:47.839Z,11.27
2023-04-10T09:26:27.598Z,11.23
2023-04-10T09:29:01.150Z,10.33
2023-04-10T09:31:34.990Z,9.37
2023-04-10T09:34:10.755Z,10.77
2023-04-10T09:36:38.226Z,9.60
2023-04-10T09:39:07.622Z,9.07
2023-04-10T09:41:34.917Z,9.90
2023-04-10T09:44:11.320Z,9.07
2023-04-10T09:46:38.763Z,9.03
2023-04-10T09:49:07.163Z,9.40
2023-04-10T09:51:36.221Z,15.20
2023-04-10T09:54:04.116Z,8.83
2023-04-10T09:56:38.968Z,9.53
2023-04-10T09:59:07.806Z,8.07
2023-04-10T10:01:37.665Z,9.23
2023-04-10T10:04:05.688Z,9.30
2023-04-10T10:06:33.662Z,8.97
2023-04-10T10:09:04.258Z,9.07
2023-04-10T10:11:35.273Z,8.87
2023-04-10T10:14:09.103Z,10.10
2023-04-10T10:16:46.269Z,9.40
2023-04-10T10:19:20.424Z,9.10
2023-04-10T10:21:48.574Z,9.27
2023-04-10T10:24:18.522Z,9.43
2023-04-10T10:26:48.478Z,8.40
2023-04-10T10:29:17.457Z,10.13
2023-04-10T10:31:47.813Z,7.53
2023-04-10T10:34:16.528Z,8.87
2023-04-10T10:36:43.447Z,7.67
2023-04-10T10:39:28.721Z,7.70
2023-04-10T10:42:08.448Z,8.50
2023-04-10T10:44:47.109Z,9.77
2023-04-10T10:47:19.697Z,8.87
2023-04-10T10:49:58.392Z,8.00
2023-04-10T10:52:46.790Z,8.90
2023-04-10T10:55:35.101Z,8.10
2023-04-10T10:58:08.135Z,7.40
2023-04-10T11:01:10.005Z,8.00
2023-04-10T11:03:37.948Z,10.07
2023-04-10T11:06:08.334Z,8.97
2023-04-10T11:08:44.511Z,8.57
2023-04-10T11:11:15.972Z,8.17
2023-04-10T11:14:17.587Z,8.57
2023-04-10T11:16:47.531Z,8.33
2023-04-10T11:19:17.800Z,8.83
2023-04-10T11:22:08.270Z,7.60
2023-04-10T11:24:57.852Z,8.60
2023-04-10T11:27:48.344Z,7.93
2023-04-10T11:30:36.421Z,7.53
2023-04-10T11:33:05.351Z,7.83
2023-04-10T11:35:34.158Z,7.53
2023-04-10T11:38:16.413Z,8.80
2023-04-10T11:41:04.179Z,8.17
2023-04-10T11:43:32.326Z,7.97
2023-04-10T11:46:07.699Z,7.37
2023-04-10T11:48:35.347Z,8.00
2023-04-10T11:51:10.841Z,7.80
2023-04-10T11:53:39.109Z,8.23
2023-04-10T11:56:15.713Z,7.70
2023-04-10T11:58:42.786Z,6.93
2023-04-10T12:01:14.315Z,7.40
2023-04-10T12:03:43.867Z,8.37
2023-04-10T12:06:13.266Z,7.07
2023-04-10T12:08:45.099Z,6.90
2023-04-10T12:11:13.014Z,7.33
2023-04-10T12:13:40.613Z,6.53
2023-04-10T12:16:10.829Z,7.17
2023-04-10T12:18:38.627Z,6.70
2023-04-10T12:21:08.631Z,6.33
2023-04-10T12:23:41.807Z,7.00
2023-04-10T12:26:14.547Z,7.00
2023-04-10T12:28:51.222Z,7.90
2023-04-10T12:31:28.108Z,6.50
2023-04-10T12:33:57.846Z,6.77
2023-04-10T12:36:31.937Z,5.97
2023-04-10T12:39:01.630Z,6.33
2023-04-10T12:41:31.211Z,6.10
2023-04-10T12:44:09.188Z,6.43
2023-04-10T12:46:38.127Z,6.30
2023-04-10T12:49:13.693Z,5.83
2023-04-10T12:51:46.589Z,6.20
2023-04-10T12:54:28.925Z,7.10
2023-04-10T12:56:57.637Z,6.00
2023-04-10T12:59:24.922Z,5.87
2023-04-10T13:01:53.509Z,5.97
2023-04-10T13:04:21.063Z,7.00
2023-04-10T13:06:52.546Z,6.40
2023-04-10T13:09:19.889Z,5.90
2023-04-10T13:11:47.800Z,5.60
2023-04-10T13:14:17.118Z,6.20
2023-04-10T13:16:44.201Z,5.50
2023-04-10T13:19:12.984Z,5.30
2023-04-10T13:21:40.265Z,6.10
2023-04-10T13:24:07.289Z,5.33
2023-04-10T13:26:34.503Z,5.37
2023-04-10T13:29:01.469Z,5.67
2023-04-10T13:31:28.751Z,5.27
2023-04-10T13:33:55.992Z,5.87
2023-04-10T13:36:24.430Z,5.73
2023-04-10T13:38:51.540Z,4.73
2023-04-10T13:41:18.836Z,5.40
2023-04-10T13:43:46.011Z,5.60
2023-04-10T13:46:12.980Z,5.00
2023-04-10T13:48:41.622Z,4.63
2023-04-10T13:51:09.297Z,4.93
2023-04-10T13:53:37.642Z,4.70
2023-04-10T13:56:06.346Z,5.07
2023-04-10T13:58:34.395Z,4.97
2023-04-10T14:01:01.734Z,5.47
2023-04-10T14:03:28.810Z,4.37
2023-04-10T14:05:56.122Z,4.53
2023-04-10T14:08:23.156Z,4.23
2023-04-10T14:10:52.765Z,4.40
2023-04-10T14:13:20.253Z,4.23
2023-04-10T14:15:47.346Z,4.30
2023-04-10T14:18:18.309Z,3.97
2023-04-10T14:20:45.422Z,4.33
2023-04-10T14:23:18.096Z,4.47
2023-04-10T14:25:45.819Z,4.13
2023-04-10T14:28:17.837Z,3.87
2023-04-10T14:30:45.180Z,4.83
2023-04-10T14:33:12.608Z,6.13
2023-04-10T14:35:40.867Z,3.43
2023-04-10T14:38:08.177Z,3.93
2023-04-10T14:40:36.833Z,3.90
2023-04-10T14:43:04.355Z,4.23
2023-04-10T14:45:33.931Z,3.50
2023-04-10T14:48:02.254Z,4.40
2023-04-10T14:50:32.044Z,4.67
2023-04-10T14:53:02.434Z,4.40
2023-04-10T14:55:30.387Z,4.30
2023-04-10T14:57:58.684Z,4.40
2023-04-10T15:00:26.550Z,4.20
2023-04-10T15:02:57.178Z,4.33
2023-04-10T15:05:26.206Z,4.53
2023-04-10T15:07:53.603Z,4.77
2023-04-10T15:10:20.888Z,4.43
2023-04-10T15:12:47.852Z,4.40
2023-04-10T15:15:15.045Z,4.20
2023-04-10T15:17:41.995Z,4.47
2023-04-10T15:20:12.194Z,6.00
2023-04-10T15:22:40.337Z,4.93
2023-04-10T15:25:09.588Z,4.10
2023-04-10T15:27:36.575Z,5.70
2023-04-10T15:30:06.124Z,4.73
2023-04-10T15:32:33.041Z,4.53
2023-04-10T15:35:00.251Z,4.40
2023-04-10T15:37:28.775Z,4.43
2023-04-10T15:39:55.672Z,4.30
2023-04-10T15:42:22.668Z,4.07
2023-04-10T15:44:49.667Z,4.60
2023-04-10T15:47:16.773Z,4.60
2023-04-10T15:49:43.735Z,4.37
2023-04-10T15:52:11.047Z,3.80
2023-04-10T15:54:40.226Z,4.00
2023-04-10T15:57:07.202Z,3.77
2023-04-10T15:59:36.114Z,3.93
2023-04-10T16:02:03.568Z,4.17
2023-04-10T16:04:31.436Z,3.83
2023-04-10T16:06:58.810Z,5.13
2023-04-10T16:09:26.836Z,4.30
2023-04-10T16:11:56.129Z,6.03
2023-04-10T16:14:23.318Z,4.73
2023-04-10T16:16:51.194Z,4.13
2023-04-10T16:19:18.099Z,4.17
2023-04-10T16:21:45.868Z,4.37
2023-04-10T16:24:12.917Z,3.60
2023-04-10T16:26:39.915Z,3.57
2023-04-10T16:29:08.230Z,3.87
2023-04-10T16:31:35.382Z,4.00
2023-04-10T16:34:04.284Z,8.23
2023-04-10T16:36:31.463Z,3.77
2023-04-10T16:38:58.859Z,3.70
2023-04-10T16:41:26.251Z,3.77
2023-04-10T16:43:53.272Z,3.47
2023-04-10T16:46:21.669Z,3.67
2023-04-10T16:48:48.864Z,3.10
2023-04-10T16:51:17.432Z,3.73
2023-04-10T16:53:44.754Z,3.87
2023-04-10T16:56:12.047Z,3.23
2023-04-10T16:58:40.974Z,3.27
2023-04-10T17:01:15.848Z,3.63
2023-04-10T17:03:44.409Z,3.73
2023-04-10T17:06:11.387Z,3.77
2023-04-10T17:08:38.642Z,3.23
2023-04-10T17:11:06.593Z,3.67
2023-04-10T17:13:35.585Z,3.20
2023-04-10T17:16:03.904Z,3.20
2023-04-10T17:18:31.021Z,3.20
2023-04-10T17:20:59.718Z,3.73
2023-04-10T17:23:26.749Z,3.67
2023-04-10T17:25:53.937Z,3.70
2023-04-10T17:28:21.327Z,3.00
2023-04-10T17:30:48.342Z,3.30
2023-04-10T17:33:15.360Z,3.03
2023-04-10T17:35:42.885Z,2.90
2023-04-10T17:38:11.301Z,3.13
2023-04-10T17:40:40.756Z,2.77
2023-04-10T17:43:07.852Z,2.57
2023-04-10T17:45:37.146Z,2.30
2023-04-10T17:48:05.078Z,2.23
2023-04-10T17:50:33.148Z,2.10
2023-04-10T17:53:00.845Z,1.93
2023-04-10T17:55:29.241Z,2.30
2023-04-10T17:57:58.430Z,4.63
2023-04-10T18:00:25.618Z,2.23
2023-04-10T18:02:57.854Z,2.30
2023-04-10T18:05:25.744Z,2.60
2023-04-10T18:07:52.666Z,3.17
2023-04-10T18:10:19.949Z,2.60
2023-04-10T18:12:48.396Z,3.20
2023-04-10T18:15:15.628Z,2.83
2023-04-10T18:17:42.630Z,2.50
2023-04-10T18:20:10.957Z,3.00
2023-04-10T18:22:38.154Z,2.47
2023-04-10T18:25:06.689Z,2.80
2023-04-10T18:27:35.735Z,2.80
2023-04-10T18:30:04.993Z,3.17
2023-04-10T18:32:32.677Z,2.97
2023-04-10T18:34:59.924Z,3.00
2023-04-10T18:37:27.396Z,2.80
2023-04-10T18:39:56.898Z,2.70
2023-04-10T18:42:27.593Z,4.63
2023-04-10T18:44:54.509Z,3.23
2023-04-10T18:47:25.804Z,3.10
2023-04-10T18:49:52.700Z,3.40
2023-04-10T18:52:19.832Z,3.07
2023-04-10T18:54:46.682Z,3.33
2023-04-10T18:57:13.883Z,3.43
2023-04-10T18:59:40.837Z,2.73
2023-04-10T19:02:08.894Z,2.50
2023-04-10T19:04:37.419Z,3.00
2023-04-10T19:07:04.731Z,4.27
2023-04-10T19:09:31.589Z,3.07
2023-04-10T19:11:59.405Z,3.73
2023-04-10T19:14:26.276Z,3.30
2023-04-10T19:16:53.190Z,3.60
2023-04-10T19:19:20.106Z,2.90
2023-04-10T19:21:48.294Z,3.07
2023-04-10T19:24:15.193Z,3.20
2023-04-10T19:26:42.095Z,2.90
2023-04-10T19:29:09.066Z,3.07
2023-04-10T19:31:36.103Z,2.80
2023-04-10T19:34:08.881Z,3.00
2023-04-10T19:36:36.417Z,2.50
2023-04-10T19:39:05.111Z,3.20
2023-04-10T19:41:32.088Z,2.90
2023-04-10T19:43:59.296Z,5.00
2023-04-10T19:46:26.508Z,2.80
2023-04-10T19:48:54.557Z,3.00
2023-04-10T19:51:21.594Z,2.87
2023-04-10T19:53:48.652Z,2.90
2023-04-10T19:56:17.320Z,3.27
2023-04-10T19:58:56.327Z,3.27
2023-04-10T20:01:24.164Z,3.47
2023-04-10T20:03:51.415Z,3.87
2023-04-10T20:06:18.666Z,4.87
2023-04-10T20:08:45.612Z,3.77
2023-04-10T20:11:12.575Z,4.20
2023-04-10T20:13:41.306Z,5.23
2023-04-10T20:16:08.662Z,4.83
2023-04-10T20:18:36.453Z,4.67
2023-04-10T20:21:04.540Z,4.50
2023-04-10T20:23:31.507Z,4.57
2023-04-10T20:25:58.440Z,4.37
2023-04-10T20:28:25.346Z,4.30
2023-04-10T20:30:53.542Z,4.23
2023-04-10T20:33:20.627Z,4.20
2023-04-10T20:35:47.728Z,4.10
2023-04-10T20:38:14.774Z,4.10
2023-04-10T20:40:41.650Z,3.90
2023-04-10T20:43:11.969Z,4.70
2023-04-10T20:45:39.414Z,4.33
2023-04-10T20:48:08.909Z,3.80
2023-04-10T20:50:37.007Z,4.13
2023-04-10T20:53:04.114Z,3.63
2023-04-10T20:55:31.053Z,4.80
2023-04-10T20:57:58.701Z,4.33
2023-04-10T21:00:30.880Z,3.43
2023-04-10T21:02:58.226Z,4.07
2023-04-10T21:05:26.666Z,5.67
2023-04-10T21:07:54.256Z,3.47
2023-04-10T21:10:21.605Z,4.83
2023-04-10T21:12:48.479Z,3.43
2023-04-10T21:15:15.624Z,4.80
2023-04-10T21:17:42.783Z,3.83
2023-04-10T21:20:11.467Z,4.00
2023-04-10T21:22:40.188Z,3.37
2023-04-10T21:25:08.542Z,3.23
2023-04-10T21:27:35.673Z,3.43
2023-04-10T21:30:02.590Z,2.67
2023-04-10T21:32:29.550Z,4.60
2023-04-10T21:34:56.400Z,3.07
2023-04-10T21:37:23.526Z,3.10
2023-04-10T21:39:51.761Z,3.53
2023-04-10T21:42:19.182Z,5.23
2023-04-10T21:44:46.910Z,5.30
2023-04-10T21:47:14.003Z,4.70
2023-04-10T21:49:41.067Z,3.57
2023-04-10T21:52:09.285Z,3.33
2023-04-10T21:54:36.310Z,2.53
2023-04-10T21:57:10.334Z,2.80
2023-04-10T21:59:38.108Z,2.73
2023-04-10T22:02:05.251Z,3.20
2023-04-10T22:04:33.179Z,3.43
2023-04-10T22:07:03.686Z,3.23
2023-04-10T22:09:31.830Z,2.80
2023-04-10T22:11:58.726Z,4.10
2023-04-10T22:14:27.370Z,4.07
2023-04-10T22:16:56.020Z,2.70
2023-04-10T22:19:25.156Z,5.43
2023-04-10T22:21:52.304Z,3.37
2023-04-10T22:24:19.363Z,7.77
2023-04-10T22:26:46.367Z,3.17
2023-04-10T22:29:14.482Z,4.30
2023-04-10T22:31:44.331Z,3.40
2023-04-10T22:34:11.758Z,3.60
2023-04-10T22:36:40.257Z,4.43
2023-04-10T22:39:07.219Z,4.90
2023-04-10T22:41:34.204Z,3.37
2023-04-10T22:44:01.146Z,5.40
2023-04-10T22:46:28.365Z,4.07
2023-04-10T22:48:56.963Z,3.37
2023-04-10T22:51:24.068Z,2.90
2023-04-10T22:53:50.909Z,2.70
2023-04-10T22:56:19.582Z,3.90
2023-04-10T22:58:46.526Z,4.13
2023-04-10T23:01:13.451Z,3.77
2023-04-10T23:03:40.635Z,2.77
2023-04-10T23:06:09.564Z,3.23
2023-04-10T23:08:37.282Z,2.20
2023-04-10T23:11:04.509Z,2.70
2023-04-10T23:13:31.374Z,3.70
2023-04-10T23:15:58.343Z,2.57
2023-04-10T23:18:25.264Z,2.63
2023-04-10T23:20:52.208Z,2.50
2023-04-10T23:23:20.798Z,2.60
2023-04-10T23:25:47.849Z,3.60
2023-04-10T23:28:14.778Z,3.63
2023-04-10T23:30:42.494Z,2.87
2023-04-10T23:33:09.518Z,2.70
2023-04-10T23:35:36.793Z,2.77
2023-04-10T23:38:03.890Z,3.10
2023-04-10T23:40:32.233Z,2.93
2023-04-10T23:42:59.090Z,3.63
2023-04-10T23:45:26.163Z,3.60
2023-04-10T23:47:53.089Z,2.63
2023-04-10T23:50:20.028Z,3.13
2023-04-10T23:52:49.943Z,6.87
2023-04-10T23:55:21.647Z,3.43
2023-04-10T23:57:50.058Z,3.40
